KRWI/RWI METAR and TAF weather

Enter ICAO airport designator
Station Type Date Time Source
KRWI METAR 2021/09/24 01:53 UTC NOAA

KRWI 240153Z AUTO 35006KT 10SM CLR 18/12 A3000 RMK AO2 SLP158 T01830122


Station Type Date Time Source
KRWI Decoded METAR 2021/09/24 01:53 UTC NOAA

ROCKY MOUNT-WILSON AIRPORT, NC, United States (KRWI) 35-51N 077-54W 47M
Sep 23, 2021 - 09:53 PM EDT / 2021.09.24 0153 UTC
Wind: from the N (350 degrees) at 7 MPH (6 KT):0
Visibility: 10 mile(s):0
Sky conditions: clear
Temperature: 64.9 F (18.3 C)
Dew Point: 54.0 F (12.2 C)
Relative Humidity: 67%
Pressure (altimeter): 30 in. Hg (1015 hPa)
ob: KRWI 240153Z AUTO 35006KT 10SM CLR 18/12 A3000 RMK AO2 SLP158 T01830122
cycle: 2

Station Type Date Time Source
KRWI TAF 2021/09/23 18:42 UTC NOAA

TAF KRWI 231739Z 2318/2418 30008KT P6SM FEW040
FM241330 36010G17KT P6SM SKC

Example: see airport list